Tiempo atmosférico en la estación meteorológica de Montalbán, Dga, Teruel (885 m.)



Fecha
DESCASC
Temp. máxima en grados centígrados (hora)
DESCASC
Temp. mínima en grados centígrados (hora)
DESCASC
Temp. media en grados centígrados
DESCASC
Racha de viento máxima en m/sg (hora)
DESCASC
Velocidad máxima media en intervalos de 10 minutos(hora)
DESCASC
Precipitaciones diarias en mm
DESCASC
Precipitaciones de 00:00 a 06:00 en mm
DESCASC
Precipitaciones de 06:00 a 12:00 en mm
DESCASC
Precipitaciones de 12:00 a 18:00 en mm
DESCASC
Precipitaciones de 18:00 a 24:00 en mm
DESCASC

Gráficas

Temp. máximas Temp. mínimas Temp. medias Precipitaciones Rachas de viento máximas Velocidades máximas media en intervalos de 10 minutos

Datos horarios

Fecha y hora oficial Temperatura (ºC) Velocidad del viento (km/h) Dirección del viento Racha (km/h) Dirección de racha Precipitación (mm) Presión (hPa) Tendencia (hPa) Humedad (%)
2020-04-08 23:00:00 10.7 0 Calma 3 Noroeste 0 -- -- 94
2020-04-08 22:00:00 11 0 Calma 4 Este 0 -- -- 93
2020-04-08 21:00:00 11.7 0 Calma 4 Sudeste 0 -- -- 91
2020-04-08 20:00:00 13.1 0 Calma 7 Sur 0.2 -- -- 89
2020-04-08 19:00:00 13.6 0 Calma 6 Sudeste 0.6 -- -- 92
2020-04-08 18:00:00 13.6 2 Sudeste 8 Sudeste 0.4 -- -- 89
2020-04-08 17:00:00 13.9 3 Sudeste 18 Noroeste 0.4 -- -- 83
2020-04-08 16:00:00 17.2 6 Noroeste 20 Noroeste 0 -- -- 75
2020-04-08 15:00:00 14.4 3 Sudeste 10 Sudeste 0.6 -- -- 85
2020-04-08 14:00:00 14.2 4 Oeste 12 Norte 0.6 -- -- 81
2020-04-08 13:00:00 15.3 5 Norte 15 Noroeste 0.2 -- -- 71
2020-04-08 12:00:00 13.9 4 Nordeste 13 Norte 0 -- -- 80
2020-04-08 11:00:00 12 0 Calma 5 Norte 0 -- -- 90
2020-04-08 10:00:00 9.7 0 Calma 5 Sudoeste 0 -- -- 98
2020-04-08 09:00:00 8.6 0 Calma 3 Nordeste 0 -- -- 98
2020-04-08 08:00:00 8.8 0 Calma 3 Noroeste 0 -- -- 98
2020-04-08 07:00:00 8.9 0 Calma 2 Este 0 -- -- 98
2020-04-08 06:00:00 8.9 0 Calma 3 Sudeste 0 -- -- 97
2020-04-08 05:00:00 9.3 0 Calma 4 Sudeste 0 -- -- 97
2020-04-08 04:00:00 9.8 0 Calma 2 Norte 0 -- -- 97
2020-04-08 03:00:00 10 0 Calma 5 Sudeste 0 -- -- 97
2020-04-08 02:00:00 10 0 Calma 2 Norte 0 -- -- 97
2020-04-08 01:00:00 9.7 0 Calma 4 Sudeste 0 -- -- 97
2020-04-08 00:00:00 9.1 0 Calma 4 Sudeste 0 -- -- 96
2020-04-07 23:00:00 9.6 0 Calma 8 Norte 0 -- -- 95
2020-04-07 22:00:00 10.1 0 Calma 6 Norte 0 -- -- 95
2020-04-07 21:00:00 10.9 0 Calma 9 Este 0 -- -- 94
2020-04-07 20:00:00 11.7 4 Este 8 Este 0 -- -- 91
2020-04-07 19:00:00 12.4 2 Norte 9 Este 0 -- -- 89
2020-04-07 18:00:00 12.3 4 Sudeste 18 Sudeste 3.8 -- -- 94
2020-04-07 17:00:00 12.2 0 Calma 6 Sudoeste 2.2 -- -- 92
2020-04-07 16:00:00 13.2 3 Oeste 10 Oeste 0.4 -- -- 88
2020-04-07 15:00:00 14.6 3 Nordeste 11 Noroeste 0 -- -- 83
2020-04-07 14:00:00 14 3 Oeste 8 Sur 0 -- -- 81
2020-04-07 13:00:00 12.9 2 Nordeste 14 Sur 0.2 -- -- 85
2020-04-07 12:00:00 12.7 3 Noroeste 6 Norte 0 -- -- 84
2020-04-07 11:00:00 11.4 0 Calma 13 Sudeste 0.2 -- -- 94
2020-04-07 10:00:00 10.5 4 Sur 10 Sur 0 -- -- 97
2020-04-07 09:00:00 9.5 3 Este 6 Este 0 -- -- 98
2020-04-07 08:00:00 9.1 0 Calma 8 Nordeste 0 -- -- 97
2020-04-07 07:00:00 9.3 3 Nordeste 8 Sudeste 0 -- -- 96
2020-04-07 06:00:00 9.8 2 Norte 5 Sudeste 0.2 -- -- 97
2020-04-07 05:00:00 10.1 0 Calma 5 Norte 0 -- -- 96
2020-04-07 04:00:00 10.4 0 Calma 5 Sudeste 0 -- -- 96
2020-04-07 03:00:00 10.5 0 Calma 6 Noroeste 0.2 -- -- 96
2020-04-07 02:00:00 10.9 0 Calma 4 Sudoeste 1.8 -- -- 96
2020-04-07 01:00:00 11 0 Calma 8 Sur 0.6 -- -- 96
2020-04-07 00:00:00 10.9 3 Sudeste 5 Este 0.2 -- -- 95
2020-04-06 23:00:00 11.1 0 Calma 3 Este 2 -- -- 94
2020-04-06 22:00:00 11.2 0 Calma 9 Nordeste 1.6 -- -- 94
2020-04-06 21:00:00 11.3 0 Calma 12 Este 1.2 -- -- 93
2020-04-06 20:00:00 11.6 3 Sudeste 8 Sudeste 4.2 -- -- 93
2020-04-06 19:00:00 12.3 0 Calma 7 Sudoeste 0 -- -- 90
2020-04-06 18:00:00 12.2 2 Oeste 12 Noroeste 3 -- -- 89
2020-04-06 17:00:00 13.6 3 Norte 14 Oeste 0.4 -- -- 84
2020-04-06 16:00:00 15.7 2 Sur 10 Sudoeste 0 -- -- 67
2020-04-06 15:00:00 16.6 2 Oeste 9 Noroeste 0 -- -- 62
2020-04-06 14:00:00 16.5 5 Noroeste 21 Sudoeste 0 -- -- 62
2020-04-06 13:00:00 17.5 6 Sudoeste 27 Sudoeste 0 -- -- 50
2020-04-06 12:00:00 16.6 4 Oeste 15 Sudeste 0 -- -- 57
2020-04-06 11:00:00 14.5 4 Norte 11 Este 0 -- -- 66
2020-04-06 10:00:00 12.1 2 Norte 6 Sudoeste 0 -- -- 75
2020-04-06 09:00:00 11.1 0 Calma 5 Nordeste 0 -- -- 79
2020-04-06 08:00:00 11.4 0 Calma 13 Sudeste 0 -- -- 74
2020-04-06 07:00:00 11.8 4 Nordeste 26 Sur 0 -- -- 72
2020-04-06 06:00:00 11.6 6 Sur 21 Sudeste 0 -- -- 73
2020-04-06 05:00:00 11.7 0 Calma 17 Sudoeste 0 -- -- 72
2020-04-06 04:00:00 12.2 5 Sudoeste 24 Oeste 0 -- -- 71
2020-04-06 03:00:00 12.2 6 Oeste 27 Oeste 0 -- -- 70
2020-04-06 02:00:00 12.4 6 Sudoeste 27 Sudoeste 0 -- -- 66
2020-04-06 01:00:00 11.8 4 Oeste 14 Norte 0 -- -- 69
2020-04-06 00:00:00 11.6 3 Este 14 Oeste 0 -- -- 70
2020-04-05 23:00:00 11.6 4 Sur 14 Sudeste 0 -- -- 69
2020-04-05 22:00:00 11.9 0 Calma 12 Sudeste 0 -- -- 69
2020-04-05 21:00:00 13.4 5 Sur 15 Sudeste 0 -- -- 64
2020-04-05 20:00:00 14.6 0 Calma 5 Sudoeste 0 -- -- 60
2020-04-05 19:00:00 16.5 2 Oeste 9 Sur 0 -- -- 52
2020-04-05 18:00:00 17.3 5 Sur 11 Sudeste 0 -- -- 49
2020-04-05 17:00:00 15.6 6 Norte 15 Norte 0 -- -- 53
2020-04-05 16:00:00 15.7 5 Norte 16 Noroeste 0 -- -- 51
2020-04-05 15:00:00 15.6 8 Noroeste 15 Norte 0 -- -- 52
2020-04-05 14:00:00 13.6 6 Oeste 14 Noroeste 0 -- -- 57
2020-04-05 13:00:00 12.5 2 Noroeste 9 Noroeste 0 -- -- 56
2020-04-05 12:00:00 11.1 3 Nordeste 9 Norte 0 -- -- 57
2020-04-05 11:00:00 9.7 0 Calma 3 Noroeste 0 -- -- 59
2020-04-05 10:00:00 8.7 3 Este 8 Noroeste 0 -- -- 61
2020-04-05 09:00:00 7.3 0 Calma 9 Norte 0 -- -- 64
2020-04-05 08:00:00 6.6 0 Calma 8 Sudeste 0 -- -- 67
2020-04-05 07:00:00 6.5 3 Sudeste 7 Sur 0 -- -- 66
2020-04-05 06:00:00 6.7 2 Sur 11 Noroeste 0 -- -- 66
2020-04-05 05:00:00 7.1 6 Noroeste 18 Noroeste 0 -- -- 63
2020-04-05 04:00:00 6.7 3 Nordeste 10 Oeste 0 -- -- 68
2020-04-05 03:00:00 6.7 2 Noroeste 11 Noroeste 0 -- -- 67
2020-04-05 02:00:00 7.7 4 Sudoeste 18 Noroeste 0 -- -- 63
2020-04-05 01:00:00 8.4 8 Noroeste 22 Noroeste 0 -- -- 67
2020-04-05 00:00:00 8.3 2 Sur 20 Sudeste 0 -- -- 68
2020-04-04 23:00:00 9.2 3 Nordeste 25 Sudeste 0 -- -- 62
2020-04-04 22:00:00 10.2 8 Sur 32 Sudeste 0 -- -- 60
2020-04-04 21:00:00 11.5 9 Sur 24 Sudeste 0 -- -- 56
2020-04-04 20:00:00 13.9 8 Sur 27 Sudeste 0 -- -- 50
2020-04-04 19:00:00 16.6 8 Sudoeste 23 Oeste 0 -- -- 43
2020-04-04 18:00:00 17.8 8 Oeste 24 Sudoeste 0 -- -- 39
2020-04-04 17:00:00 16.4 3 Sudeste 15 Norte 0 -- -- 52
2020-04-04 16:00:00 17.3 5 Sudoeste 21 Noroeste 0 -- -- 52
2020-04-04 15:00:00 16.8 8 Noroeste 23 Noroeste 0 -- -- 45
2020-04-04 14:00:00 16.1 5 Sur 19 Sudeste 0 -- -- 44
2020-04-04 13:00:00 14.4 4 Noroeste 12 Noroeste 0 -- -- 46
2020-04-04 12:00:00 11.6 0 Calma 6 Este 0 -- -- 60
2020-04-04 11:00:00 6.9 2 Sudoeste 4 Sudoeste 0 -- -- 81
2020-04-04 10:00:00 1.8 0 Calma 5 Norte 0 -- -- 95
2020-04-04 09:00:00 0 0 Calma 5 Sudeste 0 -- -- 94
2020-04-04 08:00:00 -0.4 3 Sudeste 5 Sudeste 0 -- -- 93
2020-04-04 07:00:00 -0.1 0 Calma 6 Sudeste 0 -- -- 92
2020-04-04 06:00:00 0.3 0 Calma 4 Sudeste 0 -- -- 91
2020-04-04 05:00:00 0.5 0 Calma 3 Sudoeste 0 -- -- 91
2020-04-04 04:00:00 1.2 0 Calma 5 Sudeste 0 -- -- 91
2020-04-04 03:00:00 1.5 3 Sudeste 5 Sudeste 0 -- -- 90
2020-04-04 02:00:00 2.4 0 Calma 4 Sudoeste 0 -- -- 87
2020-04-04 01:00:00 3.1 2 Este 4 Sudeste 0 -- -- 85
2020-04-04 00:00:00 4.2 0 Calma 5 Sudeste 0 -- -- 82
2020-04-03 23:00:00 5.3 0 Calma 4 Sudeste 0 -- -- 75
2020-04-03 22:00:00 7.1 2 Nordeste 7 Norte 0 -- -- 67
2020-04-03 21:00:00 9.7 0 Calma 4 Nordeste 0 -- -- 56
2020-04-03 20:00:00 12.7 2 Sudeste 16 Noroeste 0 -- -- 46
2020-04-03 19:00:00 13.1 6 Noroeste 16 Noroeste 0 -- -- 45
2020-04-03 18:00:00 14 4 Sur 22 Noroeste 0 -- -- 45
2020-04-03 17:00:00 13 9 Noroeste 19 Noroeste 0 -- -- 48
2020-04-03 16:00:00 12.5 6 Noroeste 15 Norte 0 -- -- 54
2020-04-03 15:00:00 12.2 5 Norte 13 Norte 0 -- -- 53
2020-04-03 14:00:00 10.4 4 Noroeste 10 Oeste 0 -- -- 54
2020-04-03 13:00:00 8.9 5 Noroeste 9 Oeste 0 -- -- 60
2020-04-03 12:00:00 6.8 4 Noroeste 10 Oeste 0 -- -- 62
2020-04-03 11:00:00 4.8 3 Sudoeste 9 Sudoeste 0 -- -- 68
2020-04-03 10:00:00 1.2 0 Calma 4 Oeste 0 -- -- 83
2020-04-03 09:00:00 -0.6 0 Calma 3 Sur 0 -- -- 92
2020-04-03 08:00:00 -0.6 0 Calma 8 Norte 0 -- -- 90
2020-04-03 07:00:00 0.3 0 Calma 5 Norte 0 -- -- 89
2020-04-03 06:00:00 1 0 Calma 5 Este 0 -- -- 85
2020-04-03 05:00:00 2.4 3 Nordeste 7 Nordeste 0 -- -- 79
2020-04-03 04:00:00 3.5 0 Calma 6 Nordeste 0 -- -- 76
2020-04-03 03:00:00 4.8 2 Sur 13 Norte 0 -- -- 72
2020-04-03 02:00:00 5.8 8 Oeste 17 Noroeste 0 -- -- 67
2020-04-03 01:00:00 6.2 4 Noroeste 19 Noroeste 0 -- -- 73
2020-04-03 00:00:00 6.9 4 Sudeste 38 Norte 0 -- -- 70
2020-04-02 23:00:00 7.5 19 Noroeste 39 Noroeste 0 -- -- 69
2020-04-02 22:00:00 8.2 14 Noroeste 27 Oeste 0 -- -- 74
2020-04-02 21:00:00 8.4 6 Noroeste 19 Sudoeste 0 -- -- 82
2020-04-02 20:00:00 8.6 5 Noroeste 15 Noroeste 0 -- -- 81
2020-04-02 19:00:00 8.5 2 Sudoeste 9 Noroeste 0 -- -- 84
2020-04-02 18:00:00 8.4 3 Sudoeste 9 Sur 0 -- -- 84
2020-04-02 17:00:00 7.6 4 Sur 18 Noroeste 0 -- -- 88
2020-04-02 16:00:00 7.5 3 Sudoeste 18 Oeste 0 -- -- 89
2020-04-02 15:00:00 7.8 5 Noroeste 21 Sudoeste 0 -- -- 84
2020-04-02 14:00:00 7.1 13 Noroeste 34 Oeste 0 -- -- 86
2020-04-02 13:00:00 6.9 7 Oeste 22 Noroeste 0.2 -- -- 91
2020-04-02 12:00:00 6.7 4 Oeste 11 Oeste 0.2 -- -- 91
2020-04-02 11:00:00 6.6 0 Calma 8 Oeste 0 -- -- 88
2020-04-02 10:00:00 6.1 2 Noroeste 4 Noroeste 0 -- -- 92
2020-04-02 09:00:00 5.3 0 Calma 2 Oeste 0 -- -- 95
2020-04-02 08:00:00 5.1 2 Sudeste 4 Sudeste 0 -- -- 95
2020-04-02 07:00:00 5.2 0 Calma 6 Sudeste 0 -- -- 96
2020-04-02 06:00:00 5.3 2 Sudeste 8 Noroeste 0 -- -- 96
2020-04-02 05:00:00 5.5 3 Noroeste 5 Noroeste 0 -- -- 96
2020-04-02 04:00:00 5.6 0 Calma 2 Sudeste 0 -- -- 96
2020-04-02 03:00:00 5.7 0 Calma 2 Sudeste 0 -- -- 96
2020-04-02 02:00:00 5.8 0 Calma 4 Nordeste 0 -- -- 95
2020-04-02 01:00:00 5.8 0 Calma 4 Este 0 -- -- 94
2020-04-02 00:00:00 5.9 0 Calma 5 Oeste 0 -- -- 94
2020-04-01 23:00:00 6 2 Este 9 Noroeste 0 -- -- 95
2020-04-01 22:00:00 6.4 0 Calma 5 Sudoeste 0 -- -- 94
2020-04-01 21:00:00 6.6 2 Sudeste 7 Noroeste 0 -- -- 93
2020-04-01 20:00:00 6.9 0 Calma 6 Noroeste 0 -- -- 91
2020-04-01 19:00:00 7.3 3 Este 9 Sudoeste 0 -- -- 90
2020-04-01 18:00:00 7.7 3 Noroeste 10 Oeste 0 -- -- 85
2020-04-01 17:00:00 7.5 3 Noroeste 9 Noroeste 0 -- -- 88
2020-04-01 16:00:00 7.7 0 Calma 9 Sudoeste 0.2 -- -- 88
2020-04-01 15:00:00 7.2 3 Sur 11 Noroeste 0 -- -- 92
2020-04-01 14:00:00 6.6 2 Sur 8 Noroeste 0.4 -- -- 95
2020-04-01 13:00:00 5.6 2 Oeste 19 Este 3.8 -- -- 98
2020-04-01 12:00:00 5.3 0 Calma 6 Oeste 3.2 -- -- 97
2020-04-01 11:00:00 5.1 0 Calma 5 Noroeste 2.4 -- -- 98
2020-04-01 10:00:00 4.8 0 Calma 8 Este 3 -- -- 97
2020-04-01 09:00:00 4.5 0 Calma 2 Este 3.2 -- -- 97
2020-04-01 08:00:00 4.3 0 Calma 6 Oeste 3.4 -- -- 97
2020-04-01 07:00:00 4.4 2 Nordeste 7 Este 0.6 -- -- 98
2020-04-01 06:00:00 4.1 2 Este 6 Nordeste 2.4 -- -- 98
2020-04-01 05:00:00 4.1 2 Oeste 8 Sudoeste 0.4 -- -- 98
2020-04-01 04:00:00 4.1 0 Calma 6 Sudeste 0 -- -- 97
2020-04-01 03:00:00 4.2 2 Sur 6 Oeste 0.2 -- -- 97
2020-04-01 02:00:00 4.3 2 Sudeste 8 Sur 0 -- -- 97
2020-04-01 01:00:00 4.1 3 Sudeste 9 Sudeste 0 -- -- 97
2020-04-01 00:00:00 3.9 4 Sudeste 12 Sudeste 0 -- -- 97
2020-03-31 23:00:00 3.7 8 Este 14 Este 0 -- -- 97
2020-03-31 22:00:00 3.6 5 Este 10 Este 0 -- -- 96
2020-03-31 21:00:00 3.7 2 Sur 11 Sudeste 0 -- -- 96
2020-03-31 20:00:00 4 2 Sur 10 Sur 0 -- -- 95
2020-03-31 19:00:00 4.2 3 Sur 9 Oeste 0 -- -- 94
2020-03-31 18:00:00 3.6 0 Calma 5 Oeste 0 -- -- 94
2020-03-31 17:00:00 2.9 0 Calma 4 Sur 0 -- -- 94
2020-03-31 16:00:00 2 0 Calma 6 Sur 0 -- -- 95
2020-03-31 15:00:00 1.4 2 Oeste 9 Norte 0.2 -- -- 94
2020-03-31 14:00:00 1 0 Calma 9 Este 0.2 -- -- 94
2020-03-31 13:00:00 0.7 3 Nordeste 8 Nordeste 0.8 -- -- 94
2020-03-31 12:00:00 -0.1 2 Noroeste 11 Noroeste 0.4 -- -- 95
2020-03-31 11:00:00 -0.2 3 Noroeste 7 Noroeste 0.2 -- -- 95
2020-03-31 10:00:00 -0.6 0 Calma 4 Oeste 0.2 -- -- 96
2020-03-31 09:00:00 -0.9 2 Sudoeste 5 Oeste 0 -- -- 95
2020-03-31 08:00:00 -1 0 Calma 4 Sudoeste 0 -- -- 94
2020-03-31 07:00:00 -1 0 Calma 4 Sudeste 0 -- -- 94
2020-03-31 06:00:00 -1.1 0 Calma 4 Oeste 0 -- -- 93
2020-03-31 05:00:00 -1.1 0 Calma 2 Sudeste 0.2 -- -- 93
2020-03-31 04:00:00 -1.3 0 Calma 3 Sudoeste 1.2 -- -- 94
2020-03-31 03:00:00 -1.2 0 Calma 4 Noroeste 1 -- -- 93
2020-03-31 02:00:00 -1 2 Oeste 4 Oeste 0.8 -- -- 93
2020-03-31 01:00:00 -0.8 3 Noroeste 6 Noroeste 0.8 -- -- 93
2020-03-31 00:00:00 -0.4 0 Calma 5 Nordeste 0.6 -- -- 92
2020-03-30 23:00:00 -0.2 2 Este 6 Sudeste 0.6 -- -- 91
2020-03-30 22:00:00 0.2 0 Calma 3 Sudeste 0 -- -- 90
2020-03-30 21:00:00 0 0 Calma 4 Sudeste 0.2 -- -- 89
2020-03-30 20:00:00 0.6 0 Calma 7 Oeste 0 -- -- 83
2020-03-30 19:00:00 0.6 4 Oeste 16 Oeste 0.2 -- -- 80
2020-03-30 18:00:00 1.2 5 Oeste 15 Oeste 0 -- -- 72
2020-03-30 17:00:00 1.8 3 Sudeste 11 Sudeste 0 -- -- 77
2020-03-30 16:00:00 1.6 4 Sudeste 13 Sudeste 0 -- -- 83
2020-03-30 15:00:00 1.1 6 Sur 12 Sudeste 0.2 -- -- 85
2020-03-30 14:00:00 0.3 3 Sudeste 12 Noroeste 0 -- -- 88
2020-03-30 13:00:00 0 0 Calma 10 Sudeste 0.2 -- -- 88
2020-03-30 12:00:00 -0.3 6 Oeste 20 Noroeste 0.2 -- -- 85
2020-03-30 11:00:00 0.4 7 Oeste 17 Norte 0 -- -- 75
2020-03-30 10:00:00 0 4 Sudeste 12 Sudeste 0.2 -- -- 91
2020-03-30 09:00:00 0.8 2 Sudeste 6 Sudeste 0.4 -- -- 89
2020-03-30 08:00:00 1.5 3 Sudeste 10 Sur 0 -- -- 86
2020-03-30 07:00:00 2.6 4 Noroeste 17 Noroeste 0 -- -- 80
2020-03-30 06:00:00 3.2 5 Sur 18 Oeste 0 -- -- 84
2020-03-30 05:00:00 4.6 5 Noroeste 16 Oeste 0 -- -- 78
2020-03-30 04:00:00 4.6 4 Noroeste 12 Noroeste 0 -- -- 78
2020-03-30 03:00:00 5 3 Sudoeste 18 Oeste 0 -- -- 77
2020-03-30 02:00:00 3.9 2 Nordeste 10 Noroeste 0 -- -- 82
2020-03-30 01:00:00 4.8 0 Calma 5 Oeste 0 -- -- 78
2020-03-30 00:00:00 5.4 0 Calma 6 Sudoeste 0 -- -- 78
2020-03-29 23:00:00 6.6 4 Noroeste 18 Noroeste 0 -- -- 75
2020-03-29 22:00:00 7.2 6 Oeste 17 Norte 0 -- -- 73
2020-03-29 21:00:00 8.4 5 Noroeste 26 Norte 0 -- -- 66
2020-03-29 20:00:00 11 8 Oeste 31 Oeste 0 -- -- 54
2020-03-29 19:00:00 13.2 14 Oeste 36 Oeste 0 -- -- 41
2020-03-29 18:00:00 14.4 16 Oeste 33 Oeste 0 -- -- 36
2020-03-29 17:00:00 15 17 Oeste 36 Oeste 0 -- -- 36
2020-03-29 16:00:00 15.4 15 Noroeste 33 Noroeste 0 -- -- 40
2020-03-29 15:00:00 16 10 Noroeste 22 Sudoeste 0 -- -- 39
2020-03-29 14:00:00 15.4 10 Oeste 24 Oeste 0 -- -- 40
2020-03-29 13:00:00 14.3 9 Oeste 21 Oeste 0 -- -- 47
2020-03-29 12:00:00 12.4 9 Noroeste 21 Noroeste 0 -- -- 51
2020-03-29 11:00:00 7.7 4 Noroeste 8 Sudoeste 0 -- -- 70
2020-03-29 10:00:00 2.3 0 Calma 5 Sudeste 0 -- -- 85
2020-03-29 09:00:00 0.1 0 Calma 5 Sudeste 0 -- -- 91
2020-03-29 08:00:00 -0.5 0 Calma 3 Sudeste 0 -- -- 91
2020-03-29 07:00:00 0.2 0 Calma 5 Sudeste 0 -- -- 91
2020-03-29 06:00:00 0.4 0 Calma 6 Sudeste 0 -- -- 90
2020-03-29 05:00:00 0.9 2 Sudeste 4 Sudeste 0 -- -- 89
2020-03-29 03:00:00 2 0 Calma 5 Sudeste 0 -- -- 86
2020-03-29 01:00:00 2.6 0 Calma 5 Oeste 0 -- -- 85
2020-03-29 00:00:00 3.4 2 Sudeste 4 Sur 0 -- -- 82
2020-03-28 23:00:00 4.4 0 Calma 3 Norte 0 -- -- 79
2020-03-28 22:00:00 5.4 0 Calma 5 Nordeste 0 -- -- 75
2020-03-28 21:00:00 6.8 0 Calma 8 Nordeste 0 -- -- 70
2020-03-28 20:00:00 9.1 0 Calma 4 Nordeste 0 -- -- 61
2020-03-28 19:00:00 11.6 2 Sudoeste 14 Noroeste 0 -- -- 52
2020-03-28 18:00:00 11.9 3 Sudoeste 16 Norte 0 -- -- 52
2020-03-28 17:00:00 12.1 4 Noroeste 20 Noroeste 0 -- -- 51
2020-03-28 16:00:00 12.2 5 Norte 16 Noroeste 0 -- -- 49
2020-03-28 15:00:00 11.6 8 Noroeste 21 Noroeste 0 -- -- 51
2020-03-28 14:00:00 11.6 5 Oeste 23 Norte 0 -- -- 50
2020-03-28 13:00:00 9.9 2 Oeste 13 Noroeste 0 -- -- 54
2020-03-28 12:00:00 9.9 9 Noroeste 15 Noroeste 0 -- -- 55
2020-03-28 11:00:00 7.9 4 Noroeste 12 Nordeste 0 -- -- 59
2020-03-28 10:00:00 6 0 Calma 5 Noroeste 0 -- -- 70
2020-03-28 09:00:00 4 0 Calma 4 Sur 0 -- -- 80
2020-03-28 08:00:00 2.8 2 Sudeste 4 Sudeste 0 -- -- 84
2020-03-28 07:00:00 2.2 0 Calma 3 Sudeste 0 -- -- 86
2020-03-28 06:00:00 2 0 Calma 4 Sudeste 0 -- -- 85
2020-03-28 05:00:00 1.5 0 Calma 4 Norte 0 -- -- 86
2020-03-28 04:00:00 1.5 0 Calma 5 Sudeste 0 -- -- 85
2020-03-28 03:00:00 0.9 0 Calma 5 Noroeste 0 -- -- 86
2020-03-28 02:00:00 0.7 0 Calma 4 Oeste 0 -- -- 87
2020-03-28 01:00:00 1 0 Calma 5 Noroeste 0 -- -- 85
2020-03-28 00:00:00 1.9 0 Calma 3 Sudeste 0 -- -- 83
2020-03-27 23:00:00 2.6 0 Calma 6 Nordeste 0 -- -- 80
2020-03-27 22:00:00 3.8 4 Norte 7 Norte 0 -- -- 75
2020-03-27 21:00:00 5 2 Este 6 Sudeste 0 -- -- 71
2020-03-27 20:00:00 6.4 0 Calma 6 Sudoeste 0 -- -- 66
2020-03-27 19:00:00 9.2 0 Calma 16 Sudeste 0 -- -- 54
2020-03-27 18:00:00 9.8 5 Oeste 16 Norte 0 -- -- 54
2020-03-27 17:00:00 9.5 5 Noroeste 23 Noroeste 0 -- -- 51
2020-03-27 16:00:00 10.5 5 Sudoeste 20 Nordeste 0 -- -- 42
2020-03-27 15:00:00 10.3 6 Sur 15 Nordeste 0 -- -- 46
2020-03-27 14:00:00 8.8 4 Sudeste 19 Sur 0 -- -- 52
2020-03-27 13:00:00 7.1 6 Noroeste 19 Norte 0 -- -- 57
2020-03-27 12:00:00 5.5 4 Sudoeste 14 Este 0 -- -- 64
2020-03-27 11:00:00 3.9 4 Noroeste 14 Nordeste 0 -- -- 69
2020-03-27 10:00:00 2.2 4 Norte 14 Nordeste 0 -- -- 74
2020-03-27 09:00:00 -1.3 0 Calma 6 Sudeste 0 -- -- 82
2020-03-27 08:00:00 -2.3 0 Calma 4 Noroeste 0 -- -- 88
2020-03-27 07:00:00 -3 0 Calma 5 Noroeste 0 -- -- 88
2020-03-27 06:00:00 -3.1 0 Calma 5 Sudeste 0 -- -- 87
2020-03-27 05:00:00 -3.3 2 Noroeste 6 Noroeste 0 -- -- 86
2020-03-27 04:00:00 -2.5 0 Calma 4 Sur 0 -- -- 84
2020-03-27 03:00:00 -2.1 0 Calma 5 Norte 0 -- -- 81
2020-03-27 02:00:00 -1.4 3 Nordeste 6 Norte 0 -- -- 78
2020-03-27 01:00:00 -0.6 3 Este 8 Sudeste 0 -- -- 74
2020-03-27 00:00:00 0.8 0 Calma 8 Norte 0 -- -- 68
2020-03-26 23:00:00 2 0 Calma 8 Noroeste 0 -- -- 62
2020-03-26 22:00:00 3.6 2 Nordeste 21 Noroeste 0 -- -- 54
2020-03-26 21:00:00 4 5 Oeste 20 Oeste 0 -- -- 58
2020-03-26 20:00:00 5.1 10 Noroeste 25 Noroeste 0 -- -- 52
2020-03-26 19:00:00 6.5 9 Noroeste 31 Noroeste 0 -- -- 50
2020-03-26 18:00:00 7.1 15 Noroeste 32 Oeste 0 -- -- 46
2020-03-26 17:00:00 6.8 15 Noroeste 39 Sudoeste 0 -- -- 51
2020-03-26 16:00:00 6.7 19 Oeste 42 Oeste 0 -- -- 48
2020-03-26 15:00:00 6.4 18 Oeste 45 Noroeste 0 -- -- 49
2020-03-26 14:00:00 6.6 23 Noroeste 52 Noroeste 0 -- -- 55
2020-03-26 13:00:00 5 28 Noroeste 50 Noroeste 0 -- -- 64
2020-03-26 12:00:00 6.6 22 Noroeste 57 Noroeste 0 -- -- 59
2020-03-26 11:00:00 5.8 23 Noroeste 49 Noroeste 0 -- -- 61
2020-03-26 10:00:00 5.7 17 Noroeste 45 Noroeste 0 -- -- 65
2020-03-26 09:00:00 5 13 Noroeste 30 Oeste 0 -- -- 74
2020-03-26 08:00:00 2.9 8 Noroeste 15 Noroeste 0 -- -- 82
2020-03-26 07:00:00 1.9 2 Norte 6 Norte 0 -- -- 81
2020-03-26 06:00:00 1.3 0 Calma 8 Norte 0 -- -- 84
2020-03-26 05:00:00 1.5 0 Calma 10 Oeste 0 -- -- 83
2020-03-26 04:00:00 2.4 5 Noroeste 14 Oeste 0 -- -- 88
2020-03-26 03:00:00 1.3 0 Calma 6 Noroeste 0 -- -- 92
2020-03-26 02:00:00 1.2 2 Nordeste 5 Sudeste 0 -- -- 91
2020-03-26 01:00:00 1.1 0 Calma 6 Sudeste 0 -- -- 92
2020-03-26 00:00:00 1.5 0 Calma 7 Sudeste 0 -- -- 91
2020-03-25 23:00:00 2.2 0 Calma 7 Noroeste 0 -- -- 89
2020-03-25 22:00:00 3.1 0 Calma 5 Noroeste 0 -- -- 89
2020-03-25 21:00:00 4.5 3 Norte 6 Norte 0 -- -- 85
2020-03-25 20:00:00 6.2 0 Calma 6 Nordeste 0 -- -- 80
2020-03-25 19:00:00 8.7 2 Sudeste 10 Nordeste 0 -- -- 71
2020-03-25 18:00:00 9.3 4 Sudoeste 14 Noroeste 0 -- -- 67
2020-03-25 17:00:00 8.4 8 Noroeste 21 Noroeste 0 -- -- 72
2020-03-25 16:00:00 9.9 9 Oeste 23 Noroeste 0 -- -- 57
2020-03-25 15:00:00 8.5 4 Sudoeste 15 Oeste 0 -- -- 70
2020-03-25 14:00:00 6.8 4 Sudoeste 12 Norte 0 -- -- 81
2020-03-25 13:00:00 6.1 3 Sudeste 15 Oeste 0.4 -- -- 86
2020-03-25 12:00:00 6.3 3 Oeste 21 Noroeste 0 -- -- 85
2020-03-25 11:00:00 5.7 7 Oeste 15 Oeste 0 -- -- 86
2020-03-25 10:00:00 5.3 0 Calma 8 Oeste 0 -- -- 90
2020-03-25 09:00:00 4.5 0 Calma 5 Norte 0 -- -- 93
2020-03-25 08:00:00 3.4 0 Calma 5 Noroeste 0 -- -- 94
2020-03-25 07:00:00 3 0 Calma 2 Este 0.2 -- -- 95
2020-03-25 06:00:00 2.9 0 Calma 9 Oeste 1.6 -- -- 94
2020-03-25 05:00:00 3.4 4 Oeste 11 Oeste 0.8 -- -- 93
2020-03-25 04:00:00 3.5 0 Calma 3 Noroeste 0.6 -- -- 94
2020-03-25 03:00:00 3.5 0 Calma 3 Noroeste 0.4 -- -- 93
2020-03-25 02:00:00 3.1 0 Calma 2 Noroeste 0 -- -- 90
2020-03-25 01:00:00 2.5 0 Calma 4 Sudeste 0 -- -- 90
2020-03-25 00:00:00 2.1 0 Calma 4 Noroeste 0 -- -- 91
2020-03-24 23:00:00 2.7 0 Calma 4 Noroeste 0 -- -- 88
2020-03-24 22:00:00 3.3 3 Sudeste 6 Nordeste 0 -- -- 86
2020-03-24 21:00:00 4.9 2 Este 6 Nordeste 0 -- -- 81
2020-03-24 20:00:00 6.2 3 Este 11 Sudeste 0 -- -- 76
2020-03-24 19:00:00 7.4 3 Este 12 Este 0 -- -- 73
2020-03-24 18:00:00 8.3 4 Sudeste 17 Sudeste 0 -- -- 72
2020-03-24 17:00:00 8.4 5 Sudeste 16 Sudeste 0 -- -- 71
2020-03-24 16:00:00 9 5 Este 18 Sur 0 -- -- 70
2020-03-24 15:00:00 9.8 5 Sudeste 21 Sudeste 0 -- -- 66
2020-03-24 14:00:00 9.3 6 Sudeste 20 Sudeste 0 -- -- 67
2020-03-24 13:00:00 9.7 11 Sudeste 26 Sudeste 0 -- -- 66
2020-03-24 12:00:00 9.3 8 Sudeste 22 Sudeste 0 -- -- 73
2020-03-24 11:00:00 9.5 6 Sudeste 15 Sur 0 -- -- 75
2020-03-24 10:00:00 8.3 3 Sudoeste 12 Sur 0 -- -- 84
2020-03-24 09:00:00 7.7 3 Sudoeste 10 Sur 0 -- -- 86
2020-03-24 08:00:00 7.1 3 Sudeste 12 Sudeste 0 -- -- 86
2020-03-24 07:00:00 7 3 Este 13 Sudeste 0 -- -- 87
2020-03-24 06:00:00 7 4 Este 13 Este 0 -- -- 91
2020-03-24 05:00:00 7.1 0 Calma 6 Sudeste 0 -- -- 89
2020-03-24 04:00:00 7.4 3 Sudeste 9 Sudeste 0 -- -- 88
2020-03-24 03:00:00 7.4 3 Sur 9 Sur 0 -- -- 89
2020-03-24 02:00:00 7.4 2 Sur 8 Sur 0.2 -- -- 90
2020-03-24 01:00:00 7.8 3 Sudeste 15 Nordeste 0 -- -- 86
2020-03-24 00:00:00 8 5 Este 14 Sudeste 0 -- -- 86
2020-03-23 23:00:00 8 3 Sudeste 9 Sudeste 0 -- -- 91
2020-03-23 22:00:00 8.2 0 Calma 6 Sur 0 -- -- 87
2020-03-23 21:00:00 8.6 0 Calma 8 Nordeste 0 -- -- 79
2020-03-23 20:00:00 8.9 4 Este 11 Este 0 -- -- 76
2020-03-23 19:00:00 9.8 3 Este 14 Este 0 -- -- 77
2020-03-23 18:00:00 10.6 4 Sur 15 Sudeste 0 -- -- 76
2020-03-23 17:00:00 11.7 4 Sur 17 Sudeste 0 -- -- 72
2020-03-23 16:00:00 11.5 4 Oeste 12 Sudoeste 0 -- -- 74
2020-03-23 15:00:00 11.2 3 Sur 13 Oeste 0 -- -- 73
2020-03-23 14:00:00 11.1 5 Sudoeste 13 Sudeste 0 -- -- 74
2020-03-23 13:00:00 10 4 Sur 13 Sudeste 0 -- -- 77
2020-03-23 12:00:00 9.3 3 Sudoeste 10 Sudeste 0 -- -- 84
2020-03-23 11:00:00 8.8 3 Sudoeste 13 Sudeste 0 -- -- 84
2020-03-23 10:00:00 7.8 2 Sur 7 Nordeste 0.2 -- -- 92
2020-03-23 09:00:00 6.8 0 Calma 5 Sur 0.6 -- -- 95
2020-03-23 08:00:00 6.6 0 Calma 3 Sudoeste 0 -- -- 93
2020-03-23 07:00:00 6.5 0 Calma 5 Oeste 0 -- -- 92
2020-03-23 06:00:00 6.5 0 Calma 7 Sudoeste 0 -- -- 93
2020-03-23 05:00:00 6.4 0 Calma 3 Sudeste 0 -- -- 93
2020-03-23 04:00:00 6.5 0 Calma 6 Sudoeste 0 -- -- 93
2020-03-23 03:00:00 6.6 0 Calma 8 Sudeste 0 -- -- 92
2020-03-23 02:00:00 6.9 3 Este 12 Sudeste 0.2 -- -- 93
2020-03-23 01:00:00 7 2 Este 9 Nordeste 0 -- -- 92
2020-03-23 00:00:00 7.1 0 Calma 9 Este 0 -- -- 92
2020-03-22 23:00:00 7.1 3 Nordeste 6 Este 0 -- -- 91
2020-03-22 22:00:00 8 0 Calma 6 Sudeste 0 -- -- 89
2020-03-22 21:00:00 8 0 Calma 5 Este 0 -- -- 87
2020-03-22 20:00:00 8 0 Calma 7 Sudeste 0 -- -- 87
2020-03-22 19:00:00 8.4 0 Calma 6 Oeste 0 -- -- 84
2020-03-22 18:00:00 8.6 2 Sudoeste 7 Oeste 0 -- -- 85
2020-03-22 17:00:00 8.8 2 Noroeste 10 Sur 0 -- -- 82
2020-03-22 16:00:00 9.6 2 Oeste 6 Sur 0 -- -- 74
2020-03-22 15:00:00 9 2 Sur 8 Oeste 0 -- -- 78
2020-03-22 14:00:00 9.2 2 Sudoeste 9 Sudeste 0 -- -- 74
2020-03-22 13:00:00 9.3 3 Oeste 10 Oeste 0 -- -- 70
2020-03-22 12:00:00 9.7 4 Oeste 14 Nordeste 0 -- -- 71
2020-03-22 11:00:00 9.3 3 Sudoeste 14 Norte 0 -- -- 72
2020-03-22 10:00:00 7.7 4 Noroeste 11 Noroeste 0 -- -- 80
2020-03-22 09:00:00 7 4 Noroeste 9 Norte 0 -- -- 88
2020-03-22 08:00:00 6.2 0 Calma 4 Sudeste 0 -- -- 91
2020-03-22 07:00:00 6.3 0 Calma 2 Este 0 -- -- 88
2020-03-22 06:00:00 6.5 0 Calma 3 Sudeste 0 -- -- 88
2020-03-22 05:00:00 6.9 0 Calma 0 Calma 0 -- -- 86
2020-03-22 04:00:00 7.2 0 Calma -- -- 0 -- -- 85
2020-03-22 03:00:00 7.4 0 Calma 3 Sudeste 0 -- -- 83
2020-03-22 02:00:00 7.3 0 Calma 2 Sudeste 0 -- -- 82
2020-03-22 01:00:00 7.3 0 Calma 0 Calma 0 -- -- 80
2020-03-22 00:00:00 7.7 0 Calma 3 Nordeste 0 -- -- 79
2020-03-21 23:00:00 7.8 0 Calma 4 Norte 0 -- -- 77
2020-03-21 22:00:00 8 0 Calma 4 Este 0 -- -- 75
2020-03-21 21:00:00 8.8 2 Este 5 Sudeste 0 -- -- 72
2020-03-21 20:00:00 10 0 Calma 4 Sudeste 0 -- -- 70
2020-03-21 19:00:00 10.6 0 Calma 4 Sudoeste 0 -- -- 70
2020-03-21 18:00:00 11 0 Calma 8 Sudoeste 0 -- -- 70
2020-03-21 17:00:00 11.5 0 Calma 9 Norte 0 -- -- 67
2020-03-21 16:00:00 11.7 2 Este 10 Noroeste 0 -- -- 63
2020-03-21 15:00:00 12.2 4 Noroeste 15 Noroeste 0 -- -- 60
2020-03-21 14:00:00 11.7 10 Noroeste 19 Noroeste 0 -- -- 63
2020-03-21 13:00:00 11.9 9 Noroeste 25 Noroeste 0 -- -- 61
2020-03-21 12:00:00 11.4 7 Noroeste 16 Oeste 0 -- -- 59
2020-03-21 11:00:00 9.6 3 Este 6 Noroeste 0 -- -- 65
2020-03-21 10:00:00 5.6 0 Calma 4 Sudoeste 0 -- -- 84
2020-03-21 09:00:00 2.6 0 Calma 3 Noroeste 0 -- -- 96
2020-03-21 08:00:00 1.8 0 Calma 3 Sudeste 0 -- -- 95
2020-03-21 07:00:00 1.4 0 Calma 3 Noroeste 0 -- -- 94
2020-03-21 06:00:00 2.6 0 Calma 5 Nordeste 0 -- -- 95
2020-03-21 05:00:00 3.1 0 Calma 2 Sudeste 0 -- -- 95
2020-03-21 04:00:00 3.1 0 Calma 3 Noroeste 0 -- -- 94
2020-03-21 03:00:00 3.8 0 Calma 3 Sudeste 0 -- -- 93
2020-03-21 02:00:00 4.3 0 Calma 3 Sudeste 0 -- -- 92
2020-03-21 01:00:00 4.9 0 Calma 3 Norte 0 -- -- 92
2020-03-21 00:00:00 5.6 0 Calma 3 Noroeste 0 -- -- 89
2020-03-20 23:00:00 6.6 0 Calma 4 Norte 0 -- -- 86
2020-03-20 22:00:00 7.4 0 Calma 6 Norte 0 -- -- 84
2020-03-20 21:00:00 8.4 0 Calma 4 Sudeste 0 -- -- 80
2020-03-20 20:00:00 9.3 0 Calma 7 Nordeste 0 -- -- 76
2020-03-20 19:00:00 11.2 0 Calma 9 Este 0 -- -- 71
2020-03-20 18:00:00 12.8 3 Sur 14 Oeste 0 -- -- 65
2020-03-20 17:00:00 13.2 4 Oeste 14 Oeste 0 -- -- 65
2020-03-20 16:00:00 13.9 6 Noroeste 27 Noroeste 0 -- -- 63
2020-03-20 15:00:00 14.5 4 Norte 21 Noroeste 0 -- -- 58
2020-03-20 14:00:00 13.3 6 Noroeste 21 Noroeste 0 -- -- 57
2020-03-20 13:00:00 12.2 8 Norte 21 Norte 0 -- -- 57
2020-03-20 12:00:00 10.7 6 Norte 17 Noroeste 0 -- -- 63
2020-03-20 11:00:00 9 3 Noroeste 6 Noroeste 0 -- -- 65
2020-03-20 10:00:00 6.4 0 Calma 4 Noroeste 0 -- -- 79
2020-03-20 09:00:00 3.5 0 Calma 2 Noroeste 0 -- -- 95
2020-03-20 08:00:00 2.5 0 Calma 2 Sudeste 0 -- -- 94
2020-03-20 07:00:00 2.5 0 Calma 2 Sudeste 0 -- -- 93
2020-03-20 06:00:00 2.8 0 Calma 2 Sudeste 0 -- -- 92
2020-03-20 05:00:00 3.4 0 Calma 5 Sudeste 0 -- -- 91
2020-03-20 04:00:00 4.2 2 Sudeste 5 Sudeste 0 -- -- 91
2020-03-20 03:00:00 4.5 0 Calma 4 Este 0 -- -- 89
2020-03-20 02:00:00 4.6 0 Calma 4 Sudeste 0 -- -- 91
2020-03-20 01:00:00 4.9 0 Calma 4 Sur 0 -- -- 89
2020-03-20 00:00:00 6 0 Calma 3 Sudeste 0 -- -- 87
2020-03-19 23:00:00 6.9 0 Calma 2 Noroeste 0 -- -- 84
2020-03-19 22:00:00 7.9 0 Calma 3 Nordeste 0 -- -- 80
2020-03-19 21:00:00 9.2 0 Calma 4 Noroeste 0 -- -- 75
2020-03-19 20:00:00 10.3 2 Este 6 Sur 0 -- -- 70
2020-03-19 19:00:00 12.7 0 Calma 8 Sudoeste 0 -- -- 63
2020-03-19 18:00:00 14.6 3 Sudoeste 10 Sudeste 0 -- -- 54
2020-03-19 17:00:00 15.9 5 Sudeste 18 Sudeste 0 -- -- 45
2020-03-19 16:00:00 16.8 5 Sur 15 Sudeste 0 -- -- 43
2020-03-19 15:00:00 16.5 6 Noroeste 20 Noroeste 0 -- -- 41
2020-03-19 14:00:00 15.7 6 Norte 18 Noroeste 0 -- -- 39
2020-03-19 13:00:00 14.9 6 Norte 21 Oeste 0 -- -- 38
2020-03-19 12:00:00 12.8 3 Este 8 Nordeste 0 -- -- 48
2020-03-19 11:00:00 9.8 2 Oeste 6 Noroeste 0 -- -- 65
2020-03-19 10:00:00 5.6 0 Calma 5 Oeste 0 -- -- 86
2020-03-19 09:00:00 3.5 2 Noroeste 5 Norte 0 -- -- 97
2020-03-19 08:00:00 3.1 2 Noroeste 4 Noroeste 0 -- -- 97
2020-03-19 07:00:00 3.5 0 Calma 6 Oeste 0 -- -- 96
2020-03-19 06:00:00 4.2 0 Calma 6 Norte 0 -- -- 96
2020-03-19 05:00:00 4.8 3 Oeste 7 Sudoeste 0 -- -- 95
2020-03-19 04:00:00 5.5 0 Calma 5 Nordeste 0 -- -- 95
2020-03-19 03:00:00 5.7 0 Calma 8 Norte 0 -- -- 95
2020-03-19 02:00:00 5.8 4 Nordeste 7 Norte 0 -- -- 96
2020-03-19 01:00:00 6.6 0 Calma 3 Noroeste 0 -- -- 96
2020-03-19 00:00:00 6.7 0 Calma 6 Norte 0 -- -- 94
2020-03-18 23:00:00 7.5 2 Nordeste 6 Norte 0 -- -- 92
2020-03-18 22:00:00 8.4 0 Calma 9 Este 0 -- -- 91
2020-03-18 21:00:00 9.7 3 Este 7 Este 0 -- -- 91
2020-03-18 20:00:00 10.6 0 Calma 3 Oeste 0 -- -- 86
2020-03-18 19:00:00 11.9 0 Calma 5 Sudoeste 0 -- -- 82
2020-03-18 18:00:00 13 3 Sur 12 Sudoeste 0 -- -- 76
2020-03-18 17:00:00 14.3 0 Calma 15 Sudoeste 0 -- -- 70
2020-03-18 16:00:00 14.5 3 Sudoeste 15 Noroeste 0 -- -- 63
2020-03-18 15:00:00 14.1 6 Noroeste 17 Norte 0 -- -- 65
2020-03-18 14:00:00 13.2 5 Norte 18 Noroeste 0 -- -- 71
2020-03-18 13:00:00 11.7 4 Norte 17 Nordeste 0 -- -- 78
2020-03-18 12:00:00 10.4 3 Sudoeste 13 Norte 0 -- -- 82
2020-03-18 11:00:00 8.1 3 Noroeste 5 Noroeste 0 -- -- 89
2020-03-18 10:00:00 5.9 0 Calma 6 Sudoeste 0 -- -- 99
2020-03-18 09:00:00 5.4 2 Oeste 6 Oeste 0 -- -- 98
2020-03-18 08:00:00 5.3 0 Calma 6 Sudeste 0 -- -- 98
2020-03-18 07:00:00 5.5 0 Calma 6 Sur 0 -- -- 97
2020-03-18 06:00:00 5.9 3 Sudoeste 7 Noroeste 0 -- -- 97
2020-03-18 05:00:00 6.1 0 Calma 4 Sudeste 0 -- -- 96
2020-03-18 04:00:00 6.4 0 Calma 3 Norte 0 -- -- 96
2020-03-18 03:00:00 6.5 0 Calma 6 Norte 0 -- -- 96
2020-03-18 02:00:00 6.9 0 Calma 4 Norte 0 -- -- 95
2020-03-18 01:00:00 7.5 0 Calma 3 Noroeste 0 -- -- 94
2020-03-18 00:00:00 7.6 0 Calma 6 Sudeste 0 -- -- 94
2020-03-17 23:00:00 8.1 0 Calma 8 Sudeste 0 -- -- 92
2020-03-17 22:00:00 8.4 3 Este 9 Nordeste 0 -- -- 91
2020-03-17 21:00:00 8.9 0 Calma 12 Sudeste 0 -- -- 92
2020-03-17 20:00:00 9.3 3 Sudeste 14 Sudeste 0 -- -- 91
2020-03-17 19:00:00 9.9 3 Sudeste 13 Sudeste 0 -- -- 90
2020-03-17 18:00:00 10.3 0 Calma 8 Sudeste 0 -- -- 89
2020-03-17 17:00:00 10.4 0 Calma 15 Este 0 -- -- 90
2020-03-17 16:00:00 10.3 6 Este 21 Este 0 -- -- 88
2020-03-17 15:00:00 10 4 Sudeste 10 Sur 0.6 -- -- 95
2020-03-17 14:00:00 10 0 Calma 8 Este 1.4 -- -- 94
2020-03-17 13:00:00 10.2 2 Sur 6 Sur 0.8 -- -- 95
2020-03-17 12:00:00 10.1 2 Sudoeste 13 Sudeste 0.2 -- -- 95
2020-03-17 11:00:00 9.8 4 Sur 13 Sudeste 0.2 -- -- 95
2020-03-17 10:00:00 9 3 Sudoeste 10 Sur 0.2 -- -- 96
2020-03-17 09:00:00 8.7 0 Calma 6 Sur 0.2 -- -- 96
2020-03-17 08:00:00 8.4 0 Calma 6 Oeste 1 -- -- 97
2020-03-17 07:00:00 7.6 2 Sudoeste 7 Sudoeste 5.4 -- -- 97
2020-03-17 06:00:00 7.1 2 Sudeste 4 Este 1 -- -- 97
2020-03-17 05:00:00 6.8 2 Sudeste 9 Nordeste 2.6 -- -- 96
2020-03-17 04:00:00 6.8 0 Calma 4 Este 2.2 -- -- 96
2020-03-17 03:00:00 6.6 0 Calma 5 Este 2 -- -- 96
2020-03-17 02:00:00 6.3 3 Este 5 Sudeste 1 -- -- 96
2020-03-17 01:00:00 6.1 0 Calma 6 Este 0.6 -- -- 96
2020-03-17 00:00:00 5.7 3 Este 8 Sudeste 1 -- -- 96
2020-03-16 23:00:00 5.3 0 Calma 5 Sudeste 0.2 -- -- 96
2020-03-16 22:00:00 5.1 2 Este 8 Sudeste 0.4 -- -- 96
2020-03-16 21:00:00 4.5 3 Este 6 Este 0.8 -- -- 95
2020-03-16 20:00:00 4 0 Calma 9 Oeste 0.6 -- -- 94
2020-03-16 19:00:00 4 6 Oeste 14 Oeste 0 -- -- 90
2020-03-16 18:00:00 4.8 4 Noroeste 11 Oeste 0.8 -- -- 94
2020-03-16 17:00:00 4.8 4 Noroeste 10 Noroeste 1 -- -- 93
2020-03-16 16:00:00 4.8 2 Sudoeste 8 Oeste 0.8 -- -- 94
2020-03-16 15:00:00 4.8 3 Sur 19 Sudoeste 0.6 -- -- 93
2020-03-16 14:00:00 5.5 0 Calma 6 Oeste 2 -- -- 92
2020-03-16 13:00:00 5.2 0 Calma 12 Oeste 1 -- -- 92
2020-03-16 12:00:00 5.4 6 Oeste 25 Sur 2 -- -- 89
2020-03-16 11:00:00 9.4 10 Sudeste 28 Sudeste 0.2 -- -- 75
2020-03-16 10:00:00 9.8 8 Este 21 Este 0 -- -- 78
2020-03-16 09:00:00 8.6 8 Este 19 Este 0 -- -- 88
2020-03-16 08:00:00 7.8 4 Este 15 Este 0 -- -- 92
2020-03-16 07:00:00 8 9 Este 16 Este 0 -- -- 90
2020-03-16 06:00:00 7.9 2 Este 12 Sudeste 0.2 -- -- 92
2020-03-16 05:00:00 7.9 0 Calma 11 Este 0.4 -- -- 94
2020-03-16 04:00:00 7.7 0 Calma 6 Sudeste 0.4 -- -- 94
2020-03-16 03:00:00 7.5 2 Sudeste 5 Sudeste 1.2 -- -- 93
2020-03-16 02:00:00 7.7 0 Calma 11 Noroeste 0.4 -- -- 89
2020-03-16 01:00:00 8.5 8 Sudoeste 31 Noroeste 0.2 -- -- 82
2020-03-16 00:00:00 10.8 7 Norte 61 Sudeste 0 -- -- 69
2020-03-15 23:00:00 9.2 18 Sudeste 54 Sudeste 0.4 -- -- 77
2020-03-15 22:00:00 10 24 Sudeste 57 Sur 1.6 -- -- 77
2020-03-15 21:00:00 11.2 8 Oeste 36 Oeste 0.6 -- -- 73
2020-03-15 20:00:00 14.1 8 Sur 27 Sur 0 -- -- 63
2020-03-15 19:00:00 14.8 10 Sudeste 30 Sudeste 0 -- -- 60
2020-03-15 18:00:00 16.3 7 Sudeste 26 Sudeste 0 -- -- 54
2020-03-15 17:00:00 17.8 9 Sudeste 28 Sudeste 0 -- -- 49
2020-03-15 16:00:00 18.6 8 Sur 34 Oeste 0 -- -- 48
2020-03-15 15:00:00 18.9 10 Sur 25 Sur 0 -- -- 47
2020-03-15 14:00:00 18.4 6 Sur 24 Sudoeste 0 -- -- 47
2020-03-15 13:00:00 18.5 6 Sur 24 Sudoeste 0 -- -- 46
2020-03-15 12:00:00 18.3 6 Sudoeste 29 Sudoeste 0 -- -- 49
2020-03-15 11:00:00 17 8 Sur 23 Sudeste 0 -- -- 55
2020-03-15 10:00:00 13.3 4 Sudoeste 23 Oeste 0 -- -- 66
2020-03-15 09:00:00 8.2 0 Calma 5 Sudeste 0 -- -- 75
2020-03-15 08:00:00 2.8 3 Este 8 Oeste 0 -- -- 77
2020-03-15 07:00:00 1.6 0 Calma 5 Sudoeste 0 -- -- 78
2020-03-15 06:00:00 1.7 0 Calma 3 Noroeste 0 -- -- 73
2020-03-15 05:00:00 2.1 0 Calma 2 Este 0 -- -- 68
2020-03-15 04:00:00 2.6 0 Calma 3 Sudeste 0 -- -- 65
2020-03-15 03:00:00 2.8 0 Calma 3 Sudeste 0 -- -- 63
2020-03-15 02:00:00 3.3 0 Calma 4 Sudeste 0 -- -- 60
2020-03-15 01:00:00 4.1 0 Calma 5 Sudoeste 0 -- -- 57
2020-03-15 00:00:00 4.4 0 Calma 5 Este 0 -- -- 57
2020-03-14 23:00:00 5.7 0 Calma 4 Sudoeste 0 -- -- 52
2020-03-14 22:00:00 7.2 0 Calma 5 Sudeste 0 -- -- 45
2020-03-14 21:00:00 8.9 0 Calma 5 Norte 0 -- -- 39
2020-03-14 20:00:00 11.4 0 Calma 6 Norte 0 -- -- 33
2020-03-14 19:00:00 14.2 0 Calma 13 Norte 0 -- -- 31
2020-03-14 18:00:00 16.1 8 Noroeste 18 Norte 0 -- -- 23
2020-03-14 17:00:00 16.9 7 Noroeste 27 Noroeste 0 -- -- 24
2020-03-14 16:00:00 17.4 7 Nordeste 19 Oeste 0 -- -- 24
2020-03-14 15:00:00 17.5 5 Oeste 24 Norte 0 -- -- 22
2020-03-14 14:00:00 17 8 Noroeste 24 Noroeste 0 -- -- 23
2020-03-14 13:00:00 16.1 4 Noroeste 13 Este 0 -- -- 31
2020-03-14 12:00:00 14.4 4 Norte 12 Nordeste 0 -- -- 48
2020-03-14 11:00:00 12.1 2 Noroeste 8 Oeste 0 -- -- 66
2020-03-14 10:00:00 8 0 Calma 5 Norte 0 -- -- 85
2020-03-14 09:00:00 4.1 0 Calma 6 Este 0 -- -- 95
2020-03-14 08:00:00 2.6 0 Calma 5 Sudeste 0 -- -- 94
2020-03-14 07:00:00 2.8 0 Calma 5 Noroeste 0 -- -- 92
2020-03-14 06:00:00 3.3 0 Calma 5 Norte 0 -- -- 92
2020-03-14 05:00:00 3.5 2 Nordeste 6 Norte 0 -- -- 91
2020-03-14 04:00:00 3.9 0 Calma 4 Noroeste 0 -- -- 90
2020-03-14 03:00:00 4.8 0 Calma 2 Oeste 0 -- -- 87
2020-03-14 02:00:00 5.5 0 Calma 4 Este 0 -- -- 86
2020-03-14 01:00:00 6.4 0 Calma 5 Noroeste 0 -- -- 83
2020-03-14 00:00:00 8 0 Calma 9 Este 0 -- -- 78
2020-03-13 23:00:00 9.3 2 Este 5 Este 0 -- -- 74
2020-03-13 22:00:00 9.9 2 Este 20 Noroeste 0 -- -- 72
2020-03-13 21:00:00 10.6 10 Oeste 21 Oeste 0 -- -- 72
2020-03-13 20:00:00 12 2 Noroeste 9 Oeste 0 -- -- 67
2020-03-13 19:00:00 12.8 2 Norte 10 Oeste 0 -- -- 65
2020-03-13 18:00:00 13.9 2 Sur 12 Sudoeste 0 -- -- 63
2020-03-13 17:00:00 14.8 3 Sudoeste 12 Noroeste 0 -- -- 61
2020-03-13 16:00:00 15.4 6 Noroeste 22 Norte 0 -- -- 58
2020-03-13 15:00:00 16.4 5 Norte 16 Noroeste 0 -- -- 55
2020-03-13 14:00:00 15.1 7 Norte 19 Noroeste 0 -- -- 60
2020-03-13 13:00:00 14.1 6 Norte 14 Nordeste 0 -- -- 63
2020-03-13 12:00:00 11.9 4 Nordeste 14 Norte 0 -- -- 68
2020-03-13 11:00:00 10.1 4 Norte 14 Oeste 0 -- -- 76
2020-03-13 10:00:00 9 4 Oeste 10 Oeste 0 -- -- 79
2020-03-13 09:00:00 8.4 0 Calma 8 Nordeste 0 -- -- 82
2020-03-13 08:00:00 7.7 3 Sudeste 8 Sur 0 -- -- 86
2020-03-13 07:00:00 7.2 2 Sudeste 7 Sudeste 0 -- -- 90
2020-03-13 06:00:00 7.8 3 Sudeste 8 Sudeste 0 -- -- 88
2020-03-13 05:00:00 8.6 0 Calma 9 Este 0 -- -- 85
2020-03-13 04:00:00 9 0 Calma 5 Sudeste 0 -- -- 84
2020-03-13 03:00:00 9 2 Este 10 Sudeste 0 -- -- 85
2020-03-13 02:00:00 9.6 3 Sudeste 8 Sudeste 0 -- -- 84
2020-03-13 01:00:00 10.5 3 Este 6 Este 0 -- -- 81
2020-03-13 00:00:00 11.9 0 Calma 6 Sudeste 0 -- -- 76
2020-03-12 23:00:00 13.2 2 Sudoeste 7 Sur 0 -- -- 72
2020-03-12 22:00:00 14.5 4 Norte 10 Este 0 -- -- 64
2020-03-12 21:00:00 16.6 3 Este 9 Este 0 -- -- 56
2020-03-12 20:00:00 17.9 0 Calma 6 Sur 0 -- -- 53
2020-03-12 19:00:00 20 0 Calma 9 Noroeste 0 -- -- 47
2020-03-12 18:00:00 21.7 5 Sudeste 18 Noroeste 0 -- -- 41
2020-03-12 17:00:00 24 4 Sudoeste 9 Oeste 0 -- -- 38
2020-03-12 16:00:00 25.8 3 Oeste 19 Nordeste 0 -- -- 35
2020-03-12 15:00:00 26 5 Norte 19 Noroeste 0 -- -- 34
2020-03-12 14:00:00 26.8 8 Noroeste 21 Noroeste 0 -- -- 22
2020-03-12 13:00:00 25.6 4 Nordeste 14 Sur 0 -- -- 26
2020-03-12 12:00:00 22.7 2 Noroeste 6 Noroeste 0 -- -- 36
2020-03-12 11:00:00 18.7 0 Calma 3 Sudeste 0 -- -- 51
2020-03-12 10:00:00 12.3 0 Calma 2 Sudeste 0 -- -- 73
2020-03-12 09:00:00 8.4 0 Calma 6 Norte 0 -- -- 78
2020-03-12 08:00:00 7.7 3 Norte 8 Sudeste 0 -- -- 77
2020-03-12 07:00:00 7.9 3 Sudeste 5 Sudeste 0 -- -- 77
2020-03-12 06:00:00 8.3 0 Calma 4 Sudeste 0 -- -- 74
2020-03-12 05:00:00 8.5 0 Calma 6 Sudeste 0 -- -- 74
2020-03-12 04:00:00 7.5 0 Calma 4 Sudeste 0 -- -- 77
2020-03-12 03:00:00 8.4 0 Calma 4 Este 0 -- -- 75
2020-03-12 02:00:00 9.1 0 Calma 4 Este 0 -- -- 72
2020-03-12 01:00:00 9.8 0 Calma 5 Noroeste 0 -- -- 68
2020-03-12 00:00:00 11 3 Sur 4 Sudeste 0 -- -- 64
2020-03-11 23:00:00 12.5 0 Calma 4 Norte 0 -- -- 60
2020-03-11 22:00:00 14.1 0 Calma 4 Oeste 0 -- -- 54
2020-03-11 21:00:00 15.8 0 Calma 8 Norte 0 -- -- 48
2020-03-11 20:00:00 18.6 0 Calma 6 Norte 0 -- -- 41
2020-03-11 19:00:00 21.9 0 Calma 7 Sudoeste 0 -- -- 35
2020-03-11 18:00:00 24.6 5 Oeste 16 Noroeste 0 -- -- 29
2020-03-11 17:00:00 25.4 7 Oeste 17 Oeste 0 -- -- 28
2020-03-11 16:00:00 25 6 Oeste 21 Oeste 0 -- -- 27
2020-03-11 15:00:00 24.3 8 Oeste 20 Noroeste 0 -- -- 29
2020-03-11 14:00:00 23.1 8 Oeste 21 Noroeste 0 -- -- 29
2020-03-11 13:00:00 21.8 8 Oeste 21 Noroeste 0 -- -- 27
2020-03-11 12:00:00 20 9 Noroeste 20 Oeste 0 -- -- 28
2020-03-11 11:00:00 17.3 5 Oeste 14 Oeste 0 -- -- 38
2020-03-11 10:00:00 11.6 5 Noroeste 11 Noroeste 0 -- -- 70
2020-03-11 09:00:00 6.4 2 Sudeste 5 Sudeste 0 -- -- 86
2020-03-11 08:00:00 4.4 0 Calma 3 Noroeste 0 -- -- 88
2020-03-11 07:00:00 5.1 0 Calma 0 Calma 0 -- -- 88
2020-03-11 06:00:00 5.1 0 Calma 4 Sudeste 0 -- -- 87
2020-03-11 05:00:00 5.5 0 Calma 4 Noroeste 0 -- -- 87
2020-03-11 04:00:00 5.8 0 Calma 2 Nordeste 0 -- -- 84
2020-03-11 03:00:00 6.4 0 Calma 3 Noroeste 0 -- -- 81
2020-03-11 02:00:00 6.8 0 Calma 3 Noroeste 0 -- -- 79
2020-03-11 01:00:00 7.8 0 Calma 3 Noroeste 0 -- -- 75
2020-03-11 00:00:00 9.3 0 Calma 2 Noroeste 0 -- -- 70
2020-03-10 23:00:00 10.4 0 Calma 6 Nordeste 0 -- -- 65
2020-03-10 22:00:00 12.1 0 Calma 4 Oeste 0 -- -- 60
2020-03-10 21:00:00 13.9 0 Calma 4 Noroeste 0 -- -- 55
2020-03-10 20:00:00 15.6 0 Calma 9 Norte 0 -- -- 51
2020-03-10 19:00:00 18.7 0 Calma 9 Norte 0 -- -- 43
2020-03-10 18:00:00 20.7 7 Noroeste 18 Noroeste 0 -- -- 37
2020-03-10 17:00:00 21.1 7 Noroeste 18 Noroeste 0 -- -- 36
2020-03-10 16:00:00 21.6 6 Oeste 18 Oeste 0 -- -- 35
2020-03-10 15:00:00 20.6 8 Oeste 20 Noroeste 0 -- -- 35
2020-03-10 14:00:00 18.7 7 Oeste 18 Noroeste 0 -- -- 34
2020-03-10 13:00:00 17.4 9 Oeste 23 Sudoeste 0 -- -- 36
2020-03-10 12:00:00 15.3 9 Noroeste 23 Noroeste 0 -- -- 39
2020-03-10 11:00:00 12.9 9 Noroeste 23 Noroeste 0 -- -- 47
2020-03-10 10:00:00 9.7 7 Noroeste 19 Oeste 0 -- -- 57
2020-03-10 09:00:00 5.9 0 Calma 9 Noroeste 0 -- -- 66
2020-03-10 08:00:00 4.9 6 Noroeste 15 Noroeste 0 -- -- 68
2020-03-10 07:00:00 5.3 6 Noroeste 15 Sudoeste 0 -- -- 65
2020-03-10 06:00:00 5.7 3 Norte 11 Oeste 0 -- -- 63
2020-03-10 05:00:00 6 3 Noroeste 11 Sudoeste 0 -- -- 58
2020-03-10 04:00:00 5.8 4 Sudeste 13 Sudeste 0 -- -- 65
2020-03-10 03:00:00 5.7 3 Sur 15 Oeste 0 -- -- 66
2020-03-10 02:00:00 5.4 3 Sur 9 Sudeste 0 -- -- 67
2020-03-10 01:00:00 4.8 4 Sudeste 10 Sudeste 0 -- -- 71
2020-03-10 00:00:00 5.4 4 Norte 20 Oeste 0 -- -- 72